createdAt,value
2017-08-14T00:00:22.604Z,13.3
2017-08-14T00:01:22.175Z,13.3
2017-08-14T00:02:21.345Z,13.3
2017-08-14T00:03:20.531Z,13.3
2017-08-14T00:04:19.479Z,13.3
2017-08-14T00:05:19.043Z,13.3
2017-08-14T00:05:49.550Z,13.3
2017-08-14T00:06:20.048Z,13.3
2017-08-14T00:06:50.335Z,13.3
2017-08-14T00:07:20.862Z,13.3
2017-08-14T00:07:51.357Z,13.3
2017-08-14T00:09:15.478Z,13.2
2017-08-14T00:10:14.653Z,13.2
2017-08-14T00:11:13.979Z,13.2
2017-08-14T00:12:13.041Z,13.2
2017-08-14T00:13:12.228Z,13.2
2017-08-14T00:14:11.447Z,13.2
2017-08-14T00:15:10.639Z,13.2
2017-08-14T00:16:09.818Z,13.2
2017-08-14T00:17:08.878Z,13.2
2017-08-14T00:17:39.259Z,13.2
2017-08-14T00:18:09.648Z,13.2
2017-08-14T00:18:40.040Z,13.2
2017-08-14T00:19:10.422Z,13.1
2017-08-14T00:20:06.582Z,13.1
2017-08-14T00:21:06.146Z,13.1
2017-08-14T00:22:05.333Z,13.1
2017-08-14T00:23:04.287Z,13.1
2017-08-14T00:25:02.742Z,13.1
2017-08-14T00:26:02.193Z,13.1
2017-08-14T00:27:01.388Z,13.1
2017-08-14T00:28:00.571Z,13.1
2017-08-14T00:28:59.764Z,13.1
2017-08-14T00:29:58.829Z,13.1
2017-08-14T00:30:58.014Z,13.1
2017-08-14T00:31:57.096Z,13.1
2017-08-14T00:32:56.295Z,13.1
2017-08-14T00:33:55.237Z,13.1
2017-08-14T00:34:54.916Z,13
2017-08-14T00:35:53.853Z,13
2017-08-14T00:36:53.041Z,13
2017-08-14T00:37:23.525Z,13
2017-08-14T00:38:51.672Z,13.1
2017-08-14T00:39:50.746Z,13.1
2017-08-14T00:40:49.797Z,13.1
2017-08-14T00:41:48.977Z,13.1
2017-08-14T00:42:48.167Z,13
2017-08-14T00:43:47.347Z,13
2017-08-14T00:44:46.918Z,13.1
2017-08-14T00:45:45.996Z,13
2017-08-14T00:46:45.175Z,13
2017-08-14T00:47:44.130Z,13
2017-08-14T00:48:43.311Z,13
2017-08-14T00:49:42.505Z,13
2017-08-14T00:50:41.684Z,13
2017-08-14T00:51:40.858Z,13
2017-08-14T00:52:40.201Z,13
2017-08-14T00:53:39.155Z,13
2017-08-14T00:54:38.484Z,13
2017-08-14T00:55:37.651Z,13
2017-08-14T00:56:37.091Z,13
2017-08-14T00:57:36.286Z,12.9
2017-08-14T00:58:35.472Z,12.9
2017-08-14T00:59:34.665Z,12.9
2017-08-14T01:00:33.844Z,12.9
2017-08-14T01:01:32.918Z,12.9
2017-08-14T01:02:32.121Z,12.9
2017-08-14T01:03:31.305Z,12.9
2017-08-14T01:04:30.476Z,12.9
2017-08-14T01:05:29.657Z,12.9
2017-08-14T01:06:28.834Z,12.9
2017-08-14T01:07:28.395Z,12.9
2017-08-14T01:08:27.479Z,12.8
2017-08-14T01:09:26.556Z,12.9
2017-08-14T01:10:25.997Z,12.8
2017-08-14T01:11:24.930Z,12.9
2017-08-14T01:12:23.992Z,12.9
2017-08-14T01:12:54.760Z,12.9
2017-08-14T01:13:25.258Z,12.9
2017-08-14T01:13:55.753Z,12.9
2017-08-14T01:15:21.995Z,12.9
2017-08-14T01:16:21.060Z,12.9
2017-08-14T01:17:20.256Z,12.9
2017-08-14T01:18:19.432Z,12.8
2017-08-14T01:19:18.366Z,12.8
2017-08-14T01:20:17.561Z,12.8
2017-08-14T01:21:17.127Z,12.8
2017-08-14T01:22:16.059Z,12.8
2017-08-14T01:23:15.252Z,12.8
2017-08-14T01:24:14.451Z,12.8
2017-08-14T01:25:13.640Z,12.8
2017-08-14T01:26:12.824Z,12.8
2017-08-14T01:27:12.019Z,12.8
2017-08-14T01:28:11.223Z,12.8
2017-08-14T01:29:10.294Z,12.8
2017-08-14T01:30:09.480Z,12.7
2017-08-14T01:31:08.668Z,12.7
2017-08-14T01:32:07.993Z,12.7
2017-08-14T01:33:06.935Z,12.7
2017-08-14T01:34:06.496Z,12.8
2017-08-14T01:35:05.678Z,12.7
2017-08-14T01:37:03.756Z,12.7
2017-08-14T01:38:02.815Z,12.7
2017-08-14T01:39:02.396Z,12.7
2017-08-14T01:40:01.587Z,12.7
2017-08-14T01:41:00.668Z,12.7
2017-08-14T01:41:59.866Z,12.7
2017-08-14T01:42:59.048Z,12.7
2017-08-14T01:43:58.233Z,12.7
2017-08-14T01:44:57.175Z,12.7
2017-08-14T01:45:28.056Z,12.7
2017-08-14T01:45:58.428Z,12.7
2017-08-14T01:46:55.869Z,12.7
2017-08-14T01:47:55.061Z,12.7
2017-08-14T01:48:54.123Z,12.7
2017-08-14T01:49:53.190Z,12.7
2017-08-14T01:50:52.379Z,12.7
2017-08-14T01:52:50.954Z,12.6
2017-08-14T01:53:20.968Z,12.6
2017-08-14T01:54:49.249Z,12.6
2017-08-14T01:55:48.422Z,12.6
2017-08-14T01:56:47.616Z,12.6
2017-08-14T01:57:46.691Z,12.6
2017-08-14T01:58:45.885Z,12.6
2017-08-14T01:59:45.072Z,12.6
2017-08-14T02:00:44.252Z,12.6
2017-08-14T02:01:43.440Z,12.6
2017-08-14T02:02:42.895Z,12.6
2017-08-14T02:03:42.096Z,12.6
2017-08-14T02:04:41.170Z,12.6
2017-08-14T02:05:40.249Z,12.6
2017-08-14T02:06:10.630Z,12.6
2017-08-14T02:06:41.133Z,12.5
2017-08-14T02:07:38.562Z,12.6
2017-08-14T02:08:38.134Z,12.5
2017-08-14T02:09:36.969Z,12.5
2017-08-14T02:10:36.152Z,12.5
2017-08-14T02:11:35.336Z,12.5
2017-08-14T02:12:34.405Z,12.5
2017-08-14T02:13:33.581Z,12.5
2017-08-14T02:14:32.769Z,12.5
2017-08-14T02:15:31.949Z,12.5
2017-08-14T02:16:31.143Z,12.5
2017-08-14T02:17:30.351Z,12.5
2017-08-14T02:18:29.520Z,12.5
2017-08-14T02:19:41.440Z,12.5
2017-08-14T02:20:27.935Z,12.5
2017-08-14T02:21:26.898Z,12.5
2017-08-14T02:22:26.474Z,12.5
2017-08-14T02:23:25.721Z,12.5
2017-08-14T02:23:56.107Z,12.5
2017-08-14T02:24:26.600Z,12.5
2017-08-14T02:24:57.107Z,12.5
2017-08-14T02:25:27.614Z,12.5
2017-08-14T02:25:58.011Z,12.5
2017-08-14T02:27:22.369Z,12.6
2017-08-14T02:28:21.564Z,12.6
2017-08-14T02:29:20.638Z,12.6
2017-08-14T02:30:19.707Z,12.6
2017-08-14T02:31:19.283Z,12.6
2017-08-14T02:32:18.475Z,12.6
2017-08-14T02:33:17.573Z,12.6
2017-08-14T02:34:16.763Z,12.6
2017-08-14T02:35:15.855Z,12.6
2017-08-14T02:36:14.946Z,12.6
2017-08-14T02:37:14.129Z,12.6
2017-08-14T02:38:13.231Z,12.6
2017-08-14T02:39:12.435Z,12.5
2017-08-14T02:40:11.649Z,12.5
2017-08-14T02:41:10.846Z,12.5
2017-08-14T02:42:10.037Z,12.5
2017-08-14T02:43:09.230Z,12.5
2017-08-14T02:44:08.415Z,12.5
2017-08-14T02:46:06.999Z,12.5
2017-08-14T02:47:06.198Z,12.5
2017-08-14T02:48:05.388Z,12.5
2017-08-14T02:49:04.581Z,12.5
2017-08-14T02:50:03.662Z,12.5
2017-08-14T02:51:02.868Z,12.5
2017-08-14T02:52:02.082Z,12.4
2017-08-14T02:53:01.149Z,12.4
2017-08-14T02:54:00.341Z,12.4
2017-08-14T02:54:59.534Z,12.4
2017-08-14T02:55:58.614Z,12.4
2017-08-14T02:56:57.811Z,12.4
2017-08-14T02:57:57.005Z,12.4
2017-08-14T02:58:56.215Z,12.4
2017-08-14T02:59:55.412Z,12.4
2017-08-14T03:00:25.921Z,12.4
2017-08-14T03:00:56.423Z,12.4
2017-08-14T03:01:53.483Z,12.4
2017-08-14T03:02:52.676Z,12.4
2017-08-14T03:03:51.881Z,12.4
2017-08-14T03:04:51.074Z,12.4
2017-08-14T03:05:50.659Z,12.4
2017-08-14T03:06:49.383Z,12.3
2017-08-14T03:07:48.449Z,12.3
2017-08-14T03:08:48.137Z,12.3
2017-08-14T03:09:47.100Z,12.3
2017-08-14T03:10:46.169Z,12.3
2017-08-14T03:11:45.228Z,12.3
2017-08-14T03:12:44.684Z,12.3
2017-08-14T03:13:43.876Z,12.3
2017-08-14T03:14:43.057Z,12.3
2017-08-14T03:15:42.238Z,12.3
2017-08-14T03:16:41.315Z,12.3
2017-08-14T03:17:40.390Z,12.3
2017-08-14T03:18:39.578Z,12.3
2017-08-14T03:19:39.037Z,12.3
2017-08-14T03:20:09.545Z,12.3
2017-08-14T03:20:39.940Z,12.3
2017-08-14T03:21:37.268Z,12.2
2017-08-14T03:22:36.475Z,12.2
2017-08-14T03:23:35.424Z,12.2
2017-08-14T03:24:34.631Z,12.2
2017-08-14T03:25:33.829Z,12.2
2017-08-14T03:26:33.012Z,12.2
2017-08-14T03:27:32.596Z,12.2
2017-08-14T03:28:31.290Z,12.2
2017-08-14T03:29:30.482Z,12.1
2017-08-14T03:30:29.691Z,12.2
2017-08-14T03:31:00.095Z,12.2
2017-08-14T03:31:30.620Z,12.1
2017-08-14T03:32:00.911Z,12.1
2017-08-14T03:33:27.411Z,12.1
2017-08-14T03:34:26.475Z,12.1
2017-08-14T03:35:25.554Z,12.1
2017-08-14T03:36:25.136Z,12.1
2017-08-14T03:37:24.222Z,12.1
2017-08-14T03:38:23.304Z,12.1
2017-08-14T03:39:22.260Z,12.1
2017-08-14T03:40:21.455Z,12.1
2017-08-14T03:41:20.791Z,12.1
2017-08-14T03:42:19.870Z,12.1
2017-08-14T03:43:19.333Z,12.1
2017-08-14T03:44:18.308Z,12.1
2017-08-14T03:45:17.505Z,12.1
2017-08-14T03:46:16.684Z,12.1
2017-08-14T03:47:15.755Z,12.1
2017-08-14T03:48:14.966Z,12
2017-08-14T03:49:14.150Z,12
2017-08-14T03:50:13.219Z,12
2017-08-14T03:51:12.297Z,12
2017-08-14T03:52:11.875Z,12
2017-08-14T03:53:11.087Z,12
2017-08-14T03:53:41.474Z,12
2017-08-14T03:54:11.986Z,12
2017-08-14T03:55:09.168Z,12
2017-08-14T03:56:08.505Z,12
2017-08-14T03:57:07.577Z,12
2017-08-14T03:58:06.650Z,12
2017-08-14T03:59:05.730Z,12
2017-08-14T04:00:04.922Z,12
2017-08-14T04:01:04.118Z,12
2017-08-14T04:02:03.578Z,12
2017-08-14T04:03:02.772Z,12
2017-08-14T04:04:01.977Z,11.9
2017-08-14T04:05:01.179Z,12
2017-08-14T04:06:00.372Z,11.9
2017-08-14T04:06:59.078Z,11.9
2017-08-14T04:07:58.266Z,11.9
2017-08-14T04:08:57.839Z,12
2017-08-14T04:09:28.212Z,12
2017-08-14T04:09:58.607Z,12
2017-08-14T04:10:29.124Z,12
2017-08-14T04:10:59.627Z,12
2017-08-14T04:11:30.121Z,12
2017-08-14T04:12:00.634Z,11.9
2017-08-14T04:12:31.026Z,11.9
2017-08-14T04:13:01.535Z,11.9
2017-08-14T04:13:32.051Z,11.9
2017-08-14T04:14:52.893Z,11.9
2017-08-14T04:15:52.078Z,11.9
2017-08-14T04:16:50.919Z,11.9
2017-08-14T04:17:50.119Z,11.9
2017-08-14T04:18:49.317Z,11.9
2017-08-14T04:19:48.400Z,11.9
2017-08-14T04:20:47.596Z,11.9
2017-08-14T04:21:46.679Z,11.9
2017-08-14T04:22:45.867Z,11.9
2017-08-14T04:23:16.383Z,11.9
2017-08-14T04:23:46.888Z,11.9
2017-08-14T04:24:44.462Z,11.9
2017-08-14T04:25:43.658Z,11.9
2017-08-14T04:27:42.008Z,11.9
2017-08-14T04:28:41.081Z,11.9
2017-08-14T04:29:40.149Z,11.9
2017-08-14T04:30:39.254Z,11.9
2017-08-14T04:31:38.334Z,11.9
2017-08-14T04:33:36.795Z,11.9
2017-08-14T04:34:35.976Z,11.9
2017-08-14T04:35:35.172Z,11.9
2017-08-14T04:36:34.257Z,11.9
2017-08-14T04:37:33.456Z,11.9
2017-08-14T04:38:32.535Z,11.9
2017-08-14T04:39:31.741Z,11.9
2017-08-14T04:40:31.320Z,11.9
2017-08-14T04:41:30.510Z,11.9
2017-08-14T04:42:29.215Z,11.9
2017-08-14T04:43:28.672Z,11.9
2017-08-14T04:44:27.745Z,11.9
2017-08-14T04:45:27.280Z,11.9
2017-08-14T04:46:25.851Z,11.9
2017-08-14T04:47:25.076Z,11.9
2017-08-14T04:48:24.262Z,11.9
2017-08-14T04:49:23.462Z,11.9
2017-08-14T04:50:22.685Z,11.9
2017-08-14T04:51:21.747Z,12
2017-08-14T04:52:20.938Z,11.9
2017-08-14T04:53:20.132Z,12
2017-08-14T04:54:19.324Z,12
2017-08-14T04:55:18.512Z,12
2017-08-14T04:56:17.715Z,12
2017-08-14T04:57:16.805Z,12
2017-08-14T04:58:15.990Z,12
2017-08-14T04:59:15.195Z,12
2017-08-14T05:00:14.402Z,12
2017-08-14T05:01:13.604Z,12
2017-08-14T05:02:12.681Z,12
2017-08-14T05:03:11.878Z,12
2017-08-14T05:04:11.065Z,12
2017-08-14T05:05:10.262Z,12
2017-08-14T05:06:09.461Z,12
2017-08-14T05:07:08.538Z,12
2017-08-14T05:08:07.481Z,12.1
2017-08-14T05:09:07.179Z,12.1
2017-08-14T05:10:06.382Z,12.1
2017-08-14T05:11:05.455Z,12.1
2017-08-14T05:12:04.407Z,12.1
2017-08-14T05:13:03.619Z,12.1
2017-08-14T05:14:02.795Z,12.1
2017-08-14T05:15:01.867Z,12.1
2017-08-14T05:16:01.072Z,12.2
2017-08-14T05:17:00.269Z,12.2
2017-08-14T05:17:30.554Z,12.2
2017-08-14T05:18:01.333Z,12.2
2017-08-14T05:18:31.840Z,12.2
2017-08-14T05:19:02.349Z,12.2
2017-08-14T05:19:58.000Z,12.2
2017-08-14T05:20:57.187Z,12.2
2017-08-14T05:21:56.246Z,12.2
2017-08-14T05:22:55.441Z,12.2
2017-08-14T05:23:54.512Z,12.2
2017-08-14T05:24:53.725Z,12.2
2017-08-14T05:25:52.815Z,12.3
2017-08-14T05:26:51.899Z,12.3
2017-08-14T05:27:51.093Z,12.3
2017-08-14T05:28:50.295Z,12.3
2017-08-14T05:29:49.475Z,12.3
2017-08-14T05:30:48.551Z,12.3
2017-08-14T05:31:47.738Z,12.4
2017-08-14T05:32:46.813Z,12.4
2017-08-14T05:33:46.307Z,12.4
2017-08-14T05:34:45.287Z,12.4
2017-08-14T05:35:44.383Z,12.5
2017-08-14T05:36:43.957Z,12.5
2017-08-14T05:37:43.150Z,12.5
2017-08-14T05:38:42.332Z,12.5
2017-08-14T05:39:41.410Z,12.5
2017-08-14T05:41:39.494Z,12.5
2017-08-14T05:42:38.576Z,12.5
2017-08-14T05:43:37.769Z,12.6
2017-08-14T05:44:36.948Z,12.6
2017-08-14T05:45:36.525Z,12.6
2017-08-14T05:46:35.719Z,12.6
2017-08-14T05:47:34.424Z,12.6
2017-08-14T05:48:33.496Z,12.6
2017-08-14T05:49:33.192Z,12.7
2017-08-14T05:50:32.377Z,12.7
2017-08-14T05:51:31.575Z,12.7
2017-08-14T05:52:30.536Z,12.7
2017-08-14T05:53:29.722Z,12.7
2017-08-14T05:54:28.786Z,12.8
2017-08-14T05:55:27.857Z,12.8
2017-08-14T05:55:58.256Z,12.8
2017-08-14T05:56:28.759Z,12.8
2017-08-14T05:56:59.158Z,12.8
2017-08-14T05:57:29.660Z,12.8
2017-08-14T05:58:00.166Z,12.8
2017-08-14T05:59:24.910Z,12.8
2017-08-14T06:01:22.880Z,12.9
2017-08-14T06:02:22.088Z,12.9
2017-08-14T06:03:21.557Z,13
2017-08-14T06:05:20.028Z,13.1
2017-08-14T06:06:19.212Z,13.1
2017-08-14T06:07:18.281Z,13.1
2017-08-14T06:07:48.700Z,13.1
2017-08-14T06:08:19.206Z,13.1
2017-08-14T06:08:49.699Z,13.1
2017-08-14T06:09:19.957Z,13.1
2017-08-14T06:09:50.344Z,13.1
2017-08-14T06:11:15.094Z,13.2
2017-08-14T06:12:14.175Z,13.2
2017-08-14T06:13:13.117Z,13.2
2017-08-14T06:15:11.692Z,13.3
2017-08-14T06:16:10.882Z,13.3
2017-08-14T06:17:10.075Z,13.3
2017-08-14T06:18:09.269Z,13.3
2017-08-14T06:19:08.248Z,13.4
2017-08-14T06:20:07.326Z,13.4
2017-08-14T06:21:06.908Z,13.4
2017-08-14T06:22:06.098Z,13.5
2017-08-14T06:23:05.287Z,13.4
2017-08-14T06:24:04.473Z,13.5
2017-08-14T06:25:03.559Z,13.5
2017-08-14T06:26:02.763Z,13.6
2017-08-14T06:27:01.962Z,13.6
2017-08-14T06:27:32.458Z,13.6
2017-08-14T06:29:00.227Z,13.6
2017-08-14T06:29:59.427Z,13.6
2017-08-14T06:30:58.618Z,13.7
2017-08-14T06:31:57.824Z,13.8
2017-08-14T06:32:56.904Z,13.8
2017-08-14T06:33:56.098Z,13.8
2017-08-14T06:34:55.209Z,13.8
2017-08-14T06:35:54.408Z,13.9
2017-08-14T06:36:53.897Z,13.9
2017-08-14T06:37:52.979Z,13.9
2017-08-14T06:38:52.055Z,13.9
2017-08-14T06:39:51.125Z,13.9
2017-08-14T06:40:50.200Z,14
2017-08-14T06:41:49.780Z,14
2017-08-14T06:43:48.256Z,14
2017-08-14T06:44:47.336Z,14.1
2017-08-14T06:45:46.523Z,14.1
2017-08-14T06:46:45.704Z,14.1
2017-08-14T06:47:44.782Z,14.2
2017-08-14T06:48:43.973Z,14.2
2017-08-14T06:49:14.478Z,14.2
2017-08-14T06:49:44.985Z,14.2
2017-08-14T06:50:42.646Z,14.2
2017-08-14T06:51:41.598Z,14.3
2017-08-14T06:52:40.669Z,14.3
2017-08-14T06:53:40.164Z,14.3
2017-08-14T06:55:38.624Z,14.3
2017-08-14T06:56:37.834Z,14.4
2017-08-14T06:57:36.906Z,14.4
2017-08-14T06:58:36.093Z,14.4
2017-08-14T06:59:35.174Z,14.4
2017-08-14T07:00:34.358Z,14.5
2017-08-14T07:01:33.544Z,14.5
2017-08-14T07:02:32.721Z,14.6
2017-08-14T07:03:31.923Z,14.6
2017-08-14T07:04:31.111Z,14.6
2017-08-14T07:05:30.681Z,14.6
2017-08-14T07:06:29.397Z,14.6
2017-08-14T07:07:29.095Z,14.7
2017-08-14T07:08:28.302Z,14.7
2017-08-14T07:09:27.390Z,14.8
2017-08-14T07:10:26.582Z,14.8
2017-08-14T07:11:25.775Z,14.8
2017-08-14T07:12:24.733Z,14.9
2017-08-14T07:13:24.304Z,14.9
2017-08-14T07:14:23.146Z,14.9
2017-08-14T07:15:22.279Z,15
2017-08-14T07:16:21.863Z,15
2017-08-14T07:17:21.052Z,15
2017-08-14T07:18:20.248Z,15
2017-08-14T07:19:19.312Z,15.1
2017-08-14T07:20:18.395Z,15.1
2017-08-14T07:21:17.593Z,15.2
2017-08-14T07:22:16.781Z,15.3
2017-08-14T07:23:15.977Z,15.3
2017-08-14T07:24:15.058Z,15.4
2017-08-14T07:25:14.748Z,15.5
2017-08-14T07:26:13.952Z,15.6
2017-08-14T07:27:13.150Z,15.6
2017-08-14T07:28:12.349Z,15.6
2017-08-14T07:29:11.435Z,15.6
2017-08-14T07:30:10.630Z,15.6
2017-08-14T07:31:10.093Z,15.7
2017-08-14T07:32:08.821Z,15.7
2017-08-14T07:33:08.524Z,15.7
2017-08-14T07:33:39.024Z,15.7
2017-08-14T07:34:09.402Z,15.8
2017-08-14T07:34:39.544Z,15.8
2017-08-14T07:35:09.988Z,15.8
2017-08-14T07:35:40.255Z,15.8
2017-08-14T07:37:05.149Z,15.9
2017-08-14T07:38:04.351Z,15.9
2017-08-14T07:39:03.438Z,15.9
2017-08-14T07:40:03.474Z,16
2017-08-14T07:41:02.079Z,16
2017-08-14T07:42:01.145Z,16
2017-08-14T07:43:00.219Z,16.1
2017-08-14T07:43:59.819Z,16.1
2017-08-14T07:44:59.011Z,16.1
2017-08-14T07:45:58.077Z,16.2
2017-08-14T07:46:57.655Z,16.1
2017-08-14T07:47:56.719Z,16.2
2017-08-14T07:48:55.904Z,16.2
2017-08-14T07:49:55.098Z,16.2
2017-08-14T07:50:54.184Z,16.2
2017-08-14T07:51:53.148Z,16.2
2017-08-14T07:52:52.858Z,16.2
2017-08-14T07:53:52.055Z,16.2
2017-08-14T07:54:51.129Z,16.3
2017-08-14T07:56:49.582Z,16.3
2017-08-14T07:57:48.781Z,16.4
2017-08-14T07:58:47.973Z,16.4
2017-08-14T07:59:47.440Z,16.4
2017-08-14T08:00:46.278Z,16.4
2017-08-14T08:01:46.062Z,16.5
2017-08-14T08:02:45.268Z,16.5
2017-08-14T08:03:44.337Z,16.5
2017-08-14T08:04:43.538Z,16.5
2017-08-14T08:05:42.489Z,16.5
2017-08-14T08:06:42.181Z,16.6
2017-08-14T08:07:41.266Z,16.6
2017-08-14T08:08:40.384Z,16.6
2017-08-14T08:09:39.842Z,16.6
2017-08-14T08:10:38.920Z,16.7
2017-08-14T08:11:38.002Z,16.7
2017-08-14T08:12:37.079Z,16.7
2017-08-14T08:13:36.423Z,16.7
2017-08-14T08:14:36.097Z,16.7
2017-08-14T08:15:35.181Z,16.8
2017-08-14T08:16:34.367Z,16.8
2017-08-14T08:17:33.427Z,16.8
2017-08-14T08:18:33.111Z,16.8
2017-08-14T08:19:32.329Z,16.9
2017-08-14T08:20:31.523Z,16.9
2017-08-14T08:21:30.723Z,16.9
2017-08-14T08:22:29.801Z,16.9
2017-08-14T08:23:28.862Z,16.9
2017-08-14T08:24:28.552Z,16.9
2017-08-14T08:24:58.823Z,16.9
2017-08-14T08:25:29.324Z,16.9
2017-08-14T08:25:59.711Z,16.9
2017-08-14T08:26:30.092Z,17
2017-08-14T08:27:00.488Z,17
2017-08-14T08:27:31.258Z,17
2017-08-14T08:28:01.644Z,17
2017-08-14T08:29:24.399Z,17
2017-08-14T08:30:23.599Z,17
2017-08-14T08:31:23.051Z,17.1
2017-08-14T08:32:22.129Z,17.1
2017-08-14T08:33:21.193Z,17.1
2017-08-14T08:34:20.789Z,17.2
2017-08-14T08:35:19.864Z,17.2
2017-08-14T08:36:19.051Z,17.3
2017-08-14T08:37:18.741Z,17.3
2017-08-14T08:38:17.818Z,17.3
2017-08-14T08:39:17.003Z,17.4
2017-08-14T08:40:16.205Z,17.4
2017-08-14T08:41:15.541Z,17.4
2017-08-14T08:42:14.618Z,17.4
2017-08-14T08:43:13.954Z,17.5
2017-08-14T08:44:13.149Z,17.5
2017-08-14T08:45:12.724Z,17.5
2017-08-14T08:46:11.791Z,17.6
2017-08-14T08:47:10.989Z,17.6
2017-08-14T08:48:10.055Z,17.6
2017-08-14T08:49:09.630Z,17.6
2017-08-14T08:50:08.710Z,17.6
2017-08-14T08:51:08.168Z,17.7
2017-08-14T08:52:07.245Z,17.8
2017-08-14T08:53:06.712Z,17.8
2017-08-14T08:54:05.930Z,17.8
2017-08-14T08:55:05.002Z,17.9
2017-08-14T08:56:04.084Z,17.9
2017-08-14T08:56:34.351Z,17.9
2017-08-14T08:57:04.857Z,18
2017-08-14T08:57:35.347Z,18
2017-08-14T08:58:05.622Z,18
2017-08-14T08:59:02.298Z,18.1
2017-08-14T09:00:01.247Z,18.1
2017-08-14T09:01:00.461Z,18.1
2017-08-14T09:02:00.158Z,18.2
2017-08-14T09:02:59.361Z,18.2
2017-08-14T09:03:58.564Z,18.2
2017-08-14T09:04:57.645Z,18.3
2017-08-14T09:05:56.857Z,18.3
2017-08-14T09:06:56.060Z,18.4
2017-08-14T09:07:55.757Z,18.4
2017-08-14T09:08:54.956Z,18.4
2017-08-14T09:09:54.040Z,18.4
2017-08-14T09:10:53.123Z,18.4
2017-08-14T09:11:52.825Z,18.5
2017-08-14T09:12:52.016Z,18.5
2017-08-14T09:13:50.973Z,18.5
2017-08-14T09:14:50.159Z,18.5
2017-08-14T09:15:49.617Z,18.5
2017-08-14T09:16:48.834Z,18.5
2017-08-14T09:17:48.406Z,18.5
2017-08-14T09:18:47.484Z,18.5
2017-08-14T09:19:46.562Z,18.5
2017-08-14T09:20:46.270Z,18.5
2017-08-14T09:21:45.468Z,18.5
2017-08-14T09:22:44.545Z,18.5
2017-08-14T09:23:43.744Z,18.5
2017-08-14T09:24:43.088Z,18.5
2017-08-14T09:25:42.434Z,18.6
2017-08-14T09:26:41.503Z,18.6
2017-08-14T09:27:41.085Z,18.6
2017-08-14T09:28:40.269Z,18.6
2017-08-14T09:29:39.349Z,18.6
2017-08-14T09:30:38.937Z,18.7
2017-08-14T09:31:37.898Z,18.7
2017-08-14T09:32:08.413Z,18.7
2017-08-14T09:32:38.919Z,18.7
2017-08-14T09:33:09.311Z,18.7
2017-08-14T09:33:39.708Z,18.7
2017-08-14T09:34:10.095Z,18.7
2017-08-14T09:34:40.602Z,18.7
2017-08-14T09:35:10.867Z,18.7
2017-08-14T09:35:41.377Z,18.8
2017-08-14T09:36:34.528Z,18.9
2017-08-14T09:38:32.883Z,19
2017-08-14T09:39:32.353Z,19
2017-08-14T09:40:31.422Z,19.1
2017-08-14T09:41:30.989Z,19.1
2017-08-14T09:42:30.058Z,19.1
2017-08-14T09:43:29.273Z,19.2
2017-08-14T09:44:28.979Z,19.2
2017-08-14T09:45:28.171Z,19.2
2017-08-14T09:46:27.359Z,19.2
2017-08-14T09:47:26.810Z,19.3
2017-08-14T09:48:25.778Z,19.3
2017-08-14T09:49:24.980Z,19.4
2017-08-14T09:50:24.686Z,19.3
2017-08-14T09:51:23.889Z,19.4
2017-08-14T09:51:54.274Z,19.4
2017-08-14T09:53:21.919Z,19.4
2017-08-14T09:54:21.264Z,19.5
2017-08-14T09:56:20.228Z,19.5
2017-08-14T09:57:19.312Z,19.5
2017-08-14T09:58:18.894Z,19.6
2017-08-14T09:59:17.974Z,19.6
2017-08-14T10:00:17.561Z,19.6
2017-08-14T10:01:16.754Z,19.7
2017-08-14T10:02:15.955Z,19.6
2017-08-14T10:03:15.311Z,19.7
2017-08-14T10:03:45.822Z,19.7
2017-08-14T10:04:16.215Z,19.7
2017-08-14T10:04:46.484Z,19.7
2017-08-14T10:05:16.986Z,19.7
2017-08-14T10:05:47.378Z,19.7
2017-08-14T10:07:12.234Z,19.8
2017-08-14T10:08:11.589Z,19.8
2017-08-14T10:09:10.782Z,19.9
2017-08-14T10:10:10.259Z,20
2017-08-14T10:11:09.836Z,20
2017-08-14T10:12:09.051Z,20
2017-08-14T10:13:08.130Z,20.1
2017-08-14T10:14:07.483Z,20.1
2017-08-14T10:15:06.573Z,20.1
2017-08-14T10:16:06.041Z,20.2
2017-08-14T10:17:05.508Z,20.2
2017-08-14T10:18:04.596Z,20.2
2017-08-14T10:19:04.082Z,20.2
2017-08-14T10:20:03.050Z,20.3
2017-08-14T10:21:02.743Z,20.3
2017-08-14T10:22:01.814Z,20.3
2017-08-14T10:23:01.267Z,20.3
2017-08-14T10:24:00.470Z,20.4
2017-08-14T10:24:59.608Z,20.3
2017-08-14T10:25:59.301Z,20.3
2017-08-14T10:26:58.495Z,20.4
2017-08-14T10:27:57.692Z,20.5
2017-08-14T10:29:56.273Z,20.6
2017-08-14T10:30:55.467Z,20.7
2017-08-14T10:31:55.047Z,20.9
2017-08-14T10:32:54.246Z,20.8
2017-08-14T10:33:53.437Z,20.9
2017-08-14T10:34:53.012Z,20.9
2017-08-14T10:35:51.963Z,20.9
2017-08-14T10:36:51.701Z,20.9
2017-08-14T10:37:50.651Z,20.8
2017-08-14T10:38:50.337Z,20.9
2017-08-14T10:39:49.415Z,20.9
2017-08-14T10:40:49.106Z,20.9
2017-08-14T10:41:48.192Z,20.9
2017-08-14T10:42:47.389Z,20.9
2017-08-14T10:43:47.080Z,20.9
2017-08-14T10:44:46.273Z,21
2017-08-14T10:45:16.659Z,21
2017-08-14T10:45:47.056Z,21
2017-08-14T10:46:17.555Z,21
2017-08-14T10:47:44.208Z,21.1
2017-08-14T10:48:43.403Z,21
2017-08-14T10:49:42.881Z,20.9
2017-08-14T10:50:41.962Z,20.9
2017-08-14T10:51:41.425Z,20.8
2017-08-14T10:52:40.911Z,20.8
2017-08-14T10:53:39.998Z,20.8
2017-08-14T10:54:39.573Z,20.8
2017-08-14T10:55:38.767Z,20.7
2017-08-14T10:56:09.146Z,20.7
2017-08-14T10:56:39.538Z,20.7
2017-08-14T10:57:09.922Z,20.7
2017-08-14T10:57:40.432Z,20.8
2017-08-14T10:58:36.503Z,20.8
2017-08-14T10:59:36.097Z,21
2017-08-14T11:00:35.284Z,21
2017-08-14T11:01:34.486Z,21
2017-08-14T11:02:34.216Z,21.1
2017-08-14T11:03:33.429Z,21.1
2017-08-14T11:04:32.618Z,21.1
2017-08-14T11:05:32.193Z,21.2
2017-08-14T11:06:31.260Z,21.2
2017-08-14T11:07:30.824Z,21.3
2017-08-14T11:08:29.773Z,21.3
2017-08-14T11:09:29.471Z,21.4
2017-08-14T11:10:28.936Z,21.5
2017-08-14T11:11:28.192Z,21.5
2017-08-14T11:12:27.264Z,21.6
2017-08-14T11:13:26.725Z,21.6
2017-08-14T11:14:26.070Z,21.7
2017-08-14T11:16:24.663Z,21.8
2017-08-14T11:17:24.234Z,21.8
2017-08-14T11:18:23.686Z,21.8
2017-08-14T11:19:22.773Z,21.8
2017-08-14T11:20:22.542Z,21.7
2017-08-14T11:21:21.509Z,21.7
2017-08-14T11:22:20.704Z,21.7
2017-08-14T11:23:20.284Z,21.7
2017-08-14T11:24:19.468Z,21.8
2017-08-14T11:25:18.543Z,21.8
2017-08-14T11:26:18.131Z,21.9
2017-08-14T11:27:17.339Z,21.9
2017-08-14T11:28:16.787Z,21.9
2017-08-14T11:29:16.374Z,21.9
2017-08-14T11:30:15.578Z,21.9
2017-08-14T11:31:14.779Z,21.9
2017-08-14T11:32:14.368Z,21.9
2017-08-14T11:33:13.560Z,21.9
2017-08-14T11:35:12.517Z,22
2017-08-14T11:36:11.588Z,22.1
2017-08-14T11:37:11.169Z,22.1
2017-08-14T11:38:10.252Z,22.1
2017-08-14T11:39:09.945Z,22.1
2017-08-14T11:40:09.293Z,22.1
2017-08-14T11:41:08.762Z,22.1
2017-08-14T11:42:07.966Z,22.2
2017-08-14T11:43:07.165Z,22.3
2017-08-14T11:44:06.870Z,22.3
2017-08-14T11:45:06.063Z,22.4
2017-08-14T11:46:05.010Z,22.4
2017-08-14T11:47:04.709Z,22.4
2017-08-14T11:48:03.912Z,22.5
2017-08-14T11:49:03.604Z,22.5
2017-08-14T11:50:02.805Z,22.6
2017-08-14T11:51:02.274Z,22.6
2017-08-14T11:52:01.231Z,22.7
2017-08-14T11:52:31.747Z,22.7
2017-08-14T11:53:02.144Z,22.7
2017-08-14T11:53:32.653Z,22.7
2017-08-14T11:54:03.166Z,22.8
2017-08-14T11:54:33.663Z,22.8
2017-08-14T11:55:59.037Z,22.9
2017-08-14T11:56:58.219Z,23
2017-08-14T11:57:57.916Z,23
2017-08-14T11:58:57.004Z,23
2017-08-14T11:59:56.702Z,23.1
2017-08-14T12:00:55.787Z,23.2
2017-08-14T12:01:55.372Z,23.2
2017-08-14T12:02:54.840Z,23.3
2017-08-14T12:03:53.913Z,23.4
2017-08-14T12:04:53.482Z,23.5
2017-08-14T12:05:52.944Z,23.6
2017-08-14T12:06:23.340Z,23.6
2017-08-14T12:07:51.730Z,23.8
2017-08-14T12:08:50.932Z,23.9
2017-08-14T12:09:50.017Z,24
2017-08-14T12:10:49.590Z,24.1
2017-08-14T12:11:48.932Z,24.2
2017-08-14T12:12:19.435Z,24.2
2017-08-14T12:12:49.708Z,24.2
2017-08-14T12:13:47.653Z,24.3
2017-08-14T12:14:47.242Z,24.4
2017-08-14T12:15:46.711Z,24.4
2017-08-14T12:16:45.912Z,24.5
2017-08-14T12:17:45.495Z,24.6
2017-08-14T12:18:44.982Z,24.5
2017-08-14T12:19:44.050Z,24.2
2017-08-14T12:20:43.747Z,24.1
2017-08-14T12:21:42.592Z,24
2017-08-14T12:22:42.176Z,23.8
2017-08-14T12:23:41.641Z,23.6
2017-08-14T12:24:12.409Z,23.6
2017-08-14T12:24:42.800Z,23.5
2017-08-14T12:25:13.197Z,23.5
2017-08-14T12:26:39.844Z,23.3
2017-08-14T12:28:38.828Z,23.7
2017-08-14T12:29:38.023Z,23.8
2017-08-14T12:30:37.552Z,23.9
2017-08-14T12:31:37.010Z,24.1
2017-08-14T12:32:36.206Z,24.2
2017-08-14T12:33:35.657Z,24.3
2017-08-14T12:34:35.221Z,24.4
2017-08-14T12:35:34.297Z,24.5
2017-08-14T12:36:33.996Z,24.7
2017-08-14T12:37:33.062Z,24.8
2017-08-14T12:38:32.632Z,24.8
2017-08-14T12:39:32.346Z,24.9
2017-08-14T12:40:31.321Z,25
2017-08-14T12:41:30.898Z,25.1
2017-08-14T12:42:30.474Z,25.1
2017-08-14T12:43:29.817Z,25.2
2017-08-14T12:44:28.884Z,25.3
2017-08-14T12:45:28.469Z,25.3
2017-08-14T12:46:28.158Z,25.4
2017-08-14T12:47:27.224Z,25.4
2017-08-14T12:48:26.696Z,25.3
2017-08-14T12:49:26.153Z,25.4